createdAt,value
2019-02-04T22:46:29.994Z,12.4
2019-02-04T22:47:29.797Z,9.5
2019-02-04T22:48:29.869Z,9.5
2019-02-04T22:49:29.922Z,18.3
2019-02-04T22:50:30.512Z,24.3
2019-02-04T22:51:29.942Z,15.4
2019-02-04T22:52:29.873Z,18.3
2019-02-04T22:53:29.855Z,15.4
2019-02-04T22:54:29.975Z,15.4
2019-02-04T22:55:34.682Z,15.4
2019-02-04T22:56:29.920Z,15.4
2019-02-04T22:57:29.865Z,21.3
2019-02-04T22:58:30.177Z,12.4
2019-02-04T22:59:29.902Z,15.4
2019-02-04T23:00:29.917Z,12.4
2019-02-04T23:01:29.950Z,15.4
2019-02-04T23:02:29.859Z,3.9
2019-02-04T23:03:29.838Z,1.8
2019-02-04T23:04:29.994Z,12.4
2019-02-04T23:05:29.868Z,12.4
2019-02-04T23:06:29.925Z,3.9
2019-02-04T23:07:29.851Z,9.5
2019-02-04T23:08:29.879Z,6.6
2019-02-04T23:09:29.846Z,1.8
2019-02-04T23:10:29.869Z,0
2019-02-04T23:11:29.859Z,6.6
2019-02-04T23:12:29.904Z,0
2019-02-04T23:13:30.016Z,0
2019-02-04T23:14:29.826Z,1.8
2019-02-04T23:15:29.861Z,0
2019-02-04T23:16:29.844Z,3.9
2019-02-04T23:17:29.896Z,3.9
2019-02-04T23:18:29.881Z,3.9
2019-02-04T23:19:29.838Z,0
2019-02-04T23:20:29.873Z,0
2019-02-04T23:21:30.202Z,1.8
2019-02-04T23:22:29.860Z,0
2019-02-04T23:23:29.929Z,0
2019-02-04T23:24:29.877Z,0
2019-02-04T23:25:29.804Z,1.8
2019-02-04T23:26:29.854Z,3.9
2019-02-04T23:27:29.860Z,3.9
2019-02-04T23:28:29.928Z,1.8
2019-02-04T23:29:30.540Z,0
2019-02-04T23:30:31.754Z,0
2019-02-04T23:31:29.902Z,0
2019-02-04T23:32:29.863Z,0
2019-02-04T23:33:36.689Z,0
2019-02-04T23:34:29.925Z,0
2019-02-04T23:35:29.843Z,0
2019-02-04T23:36:29.812Z,0
2019-02-04T23:37:30.619Z,0
2019-02-04T23:38:29.859Z,6.6
2019-02-04T23:39:29.929Z,3.9
2019-02-04T23:40:29.845Z,3.9
2019-02-04T23:41:29.850Z,1.8
2019-02-04T23:42:29.800Z,6.6
2019-02-04T23:43:29.920Z,12.4
2019-02-04T23:44:29.904Z,9.5
2019-02-04T23:45:30.718Z,9.5
2019-02-04T23:46:29.831Z,12.4
2019-02-04T23:47:29.874Z,6.6
2019-02-04T23:48:29.879Z,9.5
2019-02-04T23:49:29.945Z,15.4
2019-02-04T23:50:29.848Z,15.4
2019-02-04T23:51:29.849Z,9.5
2019-02-04T23:52:29.961Z,12.4
2019-02-04T23:53:29.900Z,9.5
2019-02-04T23:54:29.836Z,9.5
2019-02-04T23:55:29.871Z,21.3
2019-02-04T23:56:29.887Z,21.3
2019-02-04T23:57:29.868Z,33.3
2019-02-04T23:58:29.847Z,12.4
2019-02-04T23:59:29.839Z,15.4
